Ackworth, Iowa
Current Conditions -  °F | °C
As of 3:54 AM on Friday 24 Oct 2014 (Local Time) from KDSM Reporting Station
Moderate Fog Moderate Fog  
Wind Chill: 53°   Ceiling: 100
Heat Index: 53°   Visibility: 0.12mi
Dew Point: 52°   Wind: 6mph
Humidity: 96%   Direction: 170°S
Pressure: 30.02"   Gusts: NA
Location:  41.37°N, 93.47°W
Report Text: KDSM 240854Z 17005KT 1/8SM R31/0800FT FG VV001 12/11 A3002 RMK AO2 TWR VIS 1/4 SLP162 T01170111 58005 $
Loading
Personal Weather Stations






























Interactive Weather Map
Tropical Storm Tracking
New forecast layout! Learn more

10-Day Weather Forecast

Advertisements
Track Severe Weather on mobile